Weather observations for the past three days for
Reedsburg Municipal Airport
Imperial (Metric)
Date Time (cdt) Wind (mph) Vis. (mi.) Weather Sky Cond. Temperature (ºF) Relative Humidity Wind Chill (°F) Heat Index (°F) Pressure Precipitation (in)
Air Dwpt 6 hour altimeter (in) sea level (mb) 1 hr 3 hr 6 hr
Max. Min.
04 01:35 Calm 10.00 Fair CLR 46.4 37.4 71% 29.63 0.0
04 01:15 Calm 10.00 Fair CLR 47.7 37.6 68% 29.64 0.0
04 00:55 Calm 10.00 Fair CLR 47.5 37.4 70.7 47.5 68% 29.65 0.0
04 00:35 Calm 10.00 Fair CLR 49.3 37.6 64% 29.65 0.0
04 00:15 Calm 10.00 Fair CLR 50.5 37 60% 29.66 0.0
03 23:55 Calm 10.00 Fair CLR 51.4 37.2 58% 29.66 0.0
03 23:35 Calm 10.00 Fair CLR 51.6 37.8 59% 29.66 0.0
03 23:15 Calm 10.00 Fair CLR 53.2 36 52% 29.66 0.0
03 22:55 Calm 10.00 Fair CLR 56.5 34.7 44% 29.67 0.0
03 22:35 W 3 10.00 Fair CLR 58.1 34.2 41% 29.67 0.0
03 22:15 Calm 10.00 Fair CLR 59.5 34.2 39% 29.67 0.0
03 21:55 Calm 10.00 Fair CLR 59 33.8 39% 29.67 0.0
03 21:30 W 3 10.00 Fair CLR 61 33.8 36% 29.67 0.0
03 21:15 W 3 10.00 Fair CLR 61 33.8 36% 29.66 0.0
03 20:55 W 5 10.00 Fair CLR 62.2 33.8 35% 29.66 0.0
03 20:35 W 3 10.00 Fair CLR 63.5 33.3 32% 29.66 0.0
03 20:15 W 5 10.00 Fair CLR 64.6 33.8 32% 29.65 0.0
03 19:55 W 8 10.00 Fair CLR 66.4 32.5 28% 29.64 0.0
03 19:35 W 9 10.00 Fair CLR 68 31.3 26% 29.64 0.0
03 19:15 W 14 G 18 10.00 Fair CLR 69.8 31.1 24% 29.64 0.0
03 18:55 W 12 G 17 10.00 Fair CLR 70.9 32 72.5 64.9 24% 29.64 0.0
03 18:35 W 12 G 17 10.00 Fair CLR 71.1 34.3 26% 29.63 0.0
03 18:15 W 13 G 18 10.00 Fair CLR 71.6 34.7 26% 29.63 0.0
03 17:55 W 10 G 16 10.00 Fair CLR 71.8 35.4 26% 29.62 0.0
03 17:35 W 8 G 20 10.00 Fair CLR 72 36 27% 29.63 0.0
03 17:15 W 9 10.00 Fair CLR 72 36.3 27% 29.64 0.0
03 16:55 W 16 10.00 Fair CLR 72 36.7 28% 29.64 0.0
03 16:35 W 14 G 21 10.00 Partly Cloudy SCT075 71.6 37.8 29% 29.64 0.0
03 16:15 W 14 G 20 10.00 Fair CLR 71.6 38.7 30% 29.64 0.0
03 15:55 W 12 G 20 10.00 Fair CLR 71.4 39 31% 29.65 0.0
03 15:35 SW 12 G 18 10.00 Fair CLR 70.5 39 32% 29.65 0.0
03 15:15 SW 13 G 20 10.00 Fair CLR 70 39.2 33% 29.66 0.0
03 14:55 SW 10 G 18 10.00 Fair CLR 69.6 38.8 33% 29.67 0.0
03 14:35 W 10 G 16 10.00 Fair CLR 68.9 39.7 35% 29.68 0.0
03 14:15 SW 8 G 17 10.00 Fair CLR 67.8 38.5 34% 29.68 0.0
03 13:55 SW 13 G 20 10.00 Fair CLR 67.3 39.4 36% 29.69 0.0
03 13:35 SW 7 G 20 10.00 Fair CLR 66.4 39 37% 29.69 0.0
03 13:15 SW 10 G 18 10.00 Fair CLR 65.7 38.3 37% 29.7 0.0
03 12:55 SW 10 G 18 10.00 Fair CLR 65.1 37.6 65.1 53.6 36% 29.7 0.0
03 12:35 W 16 G 21 10.00 Fair CLR 64.2 36.7 36% 29.71 0.0
03 12:15 W 13 G 21 10.00 Fair CLR 63.9 37.2 37% 29.72 0.0
03 11:55 SW 14 G 22 10.00 Fair CLR 63.3 37.6 39% 29.72 0.0
03 11:35 SW 17 G 24 10.00 Fair CLR 63.1 36.5 37% 29.73 0.0
03 11:15 SW 17 G 29 10.00 Fair CLR 62.2 38.3 41% 29.73 0.0
03 10:55 SW 20 G 28 10.00 Fair CLR 61.7 36.9 40% 29.74 0.0
03 10:35 SW 14 G 23 10.00 Fair CLR 61.9 37.6 41% 29.74 0.0
03 10:15 S 20 G 28 10.00 Fair CLR 61 38.8 44% 29.75 0.0
03 09:55 SW 15 G 26 10.00 Fair CLR 59.2 38.8 47% 29.76 0.0
03 09:35 S 21 G 26 10.00 Fair and Breezy CLR 59.7 37.9 45% 29.77 0.0
03 09:15 S 20 G 24 10.00 Mostly Cloudy BKN090 58.8 38.3 47% 29.77 0.0
03 08:55 S 14 G 23 10.00 Overcast OVC090 56.7 38.1 50% 29.77 0.0
03 08:35 SW 13 G 28 10.00 Mostly Cloudy BKN090 57.4 37.9 48% 29.78 0.0
03 08:15 SW 16 G 22 10.00 Partly Cloudy SCT080 56.1 38.5 52% 29.78 0.0
03 07:55 SW 18 G 26 10.00 Fair CLR 55.6 37.4 51% 29.78 0.0
03 07:35 SW 18 G 26 10.00 Partly Cloudy SCT095 54.7 37.2 52% 29.79 0.0
03 07:15 SW 20 G 25 10.00 Mostly Cloudy BKN095 BKN120 54 36.3 51% 29.79 0.0
03 06:55 SW 17 G 26 10.00 Mostly Cloudy SCT100 BKN120 53.8 35.6 54 51.4 50% 29.8 0.0
03 06:35 SW 16 G 22 10.00 Overcast OVC100 54 35.1 49% 29.8 0.0
03 06:15 SW 9 G 16 10.00 Overcast SCT060 SCT080 OVC090 52.7 33.4 48% 29.81 0.0
03 05:55 SW 10 10.00 Overcast SCT055 BKN080 OVC100 52.2 31.6 46% 29.81 0.0
03 05:35 SW 9 G 17 10.00 Mostly Cloudy SCT065 SCT075 BKN090 51.8 30.4 44% 29.81 0.0
03 05:15 SW 9 10.00 Overcast OVC090 52.2 29.8 42% 29.82 0.0
03 04:55 SW 13 G 18 10.00 Overcast BKN090 OVC110 52 29.8 43% 29.81 0.0
03 04:35 SW 10 10.00 Overcast OVC100 51.8 29.5 42% 29.82 0.0
03 04:15 SW 10 G 17 10.00 Overcast OVC100 51.8 28.9 41% 29.84 0.0
03 03:55 SW 10 G 17 10.00 Overcast OVC100 51.6 29.3 42% 29.84 0.0
03 03:35 SW 8 G 17 10.00 Overcast OVC110 52 28.2 40% 29.84 0.0
03 03:15 SW 8 10.00 Overcast OVC110 51.8 28 40% 29.85 0.0
03 02:55 SW 7 10.00 Overcast OVC110 51.8 27.9 40% 29.85 0.0
03 02:35 SW 10 G 16 10.00 Mostly Cloudy BKN120 52 27.5 39% 29.85 0.0
03 02:15 SW 9 10.00 Partly Cloudy SCT110 52 27.1 38% 29.86 0.0
03 01:55 SW 10 G 17 10.00 Partly Cloudy SCT120 52 26.6 37% 29.86 0.0
03 01:35 SW 13 10.00 Partly Cloudy SCT120 51.6 26.4 38% 29.87 0.0
03 01:15 SW 12 10.00 Partly Cloudy SCT120 52 25.9 36% 29.87 0.0
03 00:55 SW 9 10.00 Partly Cloudy SCT100 51.6 25.5 59.4 50.4 36% 29.88 0.0
03 00:35 SW 9 10.00 Overcast OVC100 52.3 25.9 36% 29.88 0.0
03 00:15 SW 8 10.00 Overcast OVC100 53.1 25.7 35% 29.88 0.0
02 23:55 SW 8 10.00 Overcast OVC100 52.7 26.2 36% 29.89 0.0
02 23:35 SW 9 10.00 Overcast OVC100 52.9 26.8 36% 29.89 0.0
02 23:15 SW 8 10.00 Overcast OVC100 52.9 27.1 37% 29.89 0.0
02 22:55 SW 9 10.00 Overcast OVC100 52.9 27.5 38% 29.9 0.0
02 22:35 S 7 10.00 Overcast OVC100 52.3 28.4 40% 29.91 0.0
02 22:15 SW 3 10.00 Overcast OVC100 50.5 28.6 43% 29.91 0.0
02 21:55 S 5 10.00 Partly Cloudy SCT110 50.9 27.9 41% 29.92 0.0
02 21:35 S 3 10.00 Fair CLR 51.3 26.8 39% 29.92 0.0
02 21:15 Calm 10.00 Partly Cloudy SCT100 52.2 27.1 38% 29.92 0.0
02 20:55 Calm 10.00 Partly Cloudy SCT100 52.7 26.6 36% 29.92 0.0
02 20:35 SW 3 10.00 Partly Cloudy SCT110 53.6 26.2 35% 29.92 0.0
02 20:15 SW 5 10.00 Partly Cloudy SCT100 54.5 26.2 34% 29.92 0.0
02 19:55 SW 5 10.00 Fair CLR 55.2 26.4 33% 29.92 0.0
02 19:35 W 6 10.00 Fair CLR 56.7 25.2 30% 29.92 0.0
02 19:15 W 10 G 17 10.00 Fair CLR 58.8 24.1 26% 29.92 0.0
02 18:55 W 7 10.00 Partly Cloudy SCT085 59.4 24.1 61.5 55.8 26% 29.92 0.0
02 18:35 W 13 G 16 10.00 Partly Cloudy SCT085 60.1 24.1 25% 29.93 0.0
02 18:15 W 12 G 18 10.00 Partly Cloudy SCT085 60.1 24.6 26% 29.94 0.0
02 17:55 W 7 G 13 10.00 Partly Cloudy SCT085 60.4 25 26% 29.94 0.0
02 17:35 W 9 10.00 Partly Cloudy SCT085 60.3 24.1 25% 29.94 0.0
02 17:15 W 14 G 18 10.00 Mostly Cloudy BKN085 61 25 25% 29.95 0.0
02 16:55 W 9 G 16 10.00 Mostly Cloudy BKN085 61.5 25.2 25% 29.95 0.0
02 16:35 W 14 G 18 10.00 Partly Cloudy SCT085 60.8 24.4 25% 29.96 0.0
02 16:15 W 9 G 17 10.00 Mostly Cloudy BKN085 58.6 23.5 26% 29.96 0.0
02 15:55 SW 9 G 17 10.00 Mostly Cloudy BKN085 58.6 24.1 26% 29.97 0.0
02 15:35 W 14 G 20 10.00 Overcast OVC085 61.3 26.1 26% 29.98 0.0
02 15:15 W 8 G 18 10.00 Mostly Cloudy BKN080 58.5 25.5 28% 29.99 0.0
02 14:55 W 10 G 16 10.00 Mostly Cloudy BKN080 57.9 25.7 29% 30 0.0
02 14:35 W 9 G 21 10.00 Mostly Cloudy BKN080 58.1 23.9 27% 30 0.0
02 14:15 W 10 10.00 Mostly Cloudy BKN080 BKN090 57.9 25.3 29% 30.01 0.0
02 13:55 SW 12 G 20 10.00 Mostly Cloudy BKN080 58.1 24.6 28% 30.02 0.0
02 13:35 SW 12 G 16 10.00 Mostly Cloudy BKN080 56.7 25.2 30% 30.03 0.0
02 13:15 W 10 10.00 Mostly Cloudy BKN080 BKN090 56.3 23.9 29% 30.03 0.0
02 12:55 W 13 G 20 10.00 Mostly Cloudy BKN080 57.2 23.9 58.8 34.3 28% 30.04 0.0
02 12:30 W 12 G 16 10.00 Mostly Cloudy BKN080 57.7 24.1 27% 30.04 0.0
02 12:15 NW 12 10.00 Mostly Cloudy BKN075 55.4 23.4 29% 30.05 0.0
02 11:55 W 12 G 22 10.00 Overcast BKN075 OVC085 54.5 22.5 29% 30.06 0.0
02 11:35 W 9 10.00 Mostly Cloudy SCT065 BKN085 56.7 23.7 28% 30.06 0.0
02 11:15 NW 8 G 20 10.00 Mostly Cloudy SCT065 BKN085 55.2 24.4 30% 30.06 0.0
02 10:55 W 12 G 17 10.00 Partly Cloudy SCT085 54.3 26.6 34% 30.07 0.0
02 10:35 W 12 G 20 10.00 Partly Cloudy SCT085 52.9 27 37% 30.08 0.0
02 10:15 W 8 10.00 Partly Cloudy SCT085 51.3 27.3 40% 30.08 0.0
02 09:55 W 12 G 17 10.00 Mostly Cloudy BKN085 51.1 26.8 39% 30.09 0.0
02 09:35 W 9 10.00 Partly Cloudy SCT085 49.3 26.2 41% 46 30.09 0.0
02 09:15 W 8 10.00 Partly Cloudy SCT085 49.1 27.5 43% 46 30.09 0.0
02 08:55 W 6 10.00 Partly Cloudy SCT085 47.8 28.2 47% 46 30.1 0.0
02 08:35 W 5 10.00 Partly Cloudy SCT085 45.5 30.2 55% 44 30.1 0.0
02 08:15 S 3 10.00 Mostly Cloudy BKN085 42.3 31.5 66% 30.11 0.0
02 07:55 Calm 10.00 Overcast OVC085 39.7 32 74% 30.11 0.0
02 07:35 Calm 10.00 Overcast OVC085 37.2 31.8 81% 30.11 0.0
02 07:15 Calm 10.00 Overcast OVC085 35.4 33.3 92% 30.11 0.0
02 06:55 Calm 10.00 Overcast OVC085 34.2 33.3 34.2 31.8 97% 30.11 0.0
02 06:35 Calm 10.00 Overcast OVC085 33.4 32.4 96% 30.1 0.0
02 06:15 Calm 10.00 Overcast OVC085 33.3 31.8 94% 30.1 0.0
02 05:55 Calm 10.00 Overcast OVC085 33.1 32 96% 30.1 0.0
02 05:35 Calm 10.00 Overcast OVC085 34.2 29.8 84% 30.1 0.0
02 05:15 Calm 10.00 Overcast OVC085 33.3 32.2 96% 30.1 0.0
02 04:55 Calm 10.00 Overcast OVC085 32.4 32 99% 30.1 0.0
02 04:35 Calm 10.00 Overcast OVC085 32.2 32 99% 30.1 0.0
02 04:15 Calm 10.00 Overcast OVC085 32 31.8 99% 30.1 0.0
02 03:55 Calm 10.00 Overcast OVC085 32.4 32 99% 30.09 0.0
02 03:35 Calm 10.00 Overcast OVC085 32.2 31.8 99% 30.1 0.0
02 03:15 Calm 10.00 Overcast OVC085 32 31.1 96% 30.1 0.0
02 02:55 Calm 10.00 Overcast OVC085 32 29.8 92% 30.1 0.0
02 02:35 Calm 10.00 Overcast OVC085 32 28.8 88% 30.09 0.0
02 02:15 Calm 10.00 Overcast OVC085 32 28.6 87% 30.1 0.0
02 01:35 Calm 10.00 Partly Cloudy SCT085 32.2 29.1 88% 30.1 0.0
02 01:15 Calm 10.00 Fair CLR 32.9 27.9 82% 30.1 0.0
02 00:55 Calm 10.00 Fair CLR 32.4 26.8 48.6 32.4 80% 30.1 0.0
02 00:35 Calm 10.00 Fair CLR 33.8 26.8 75% 30.09 0.0
02 00:15 Calm 10.00 Fair CLR 34.2 26.6 74% 30.1 0.0
01 23:55 Calm 10.00 Fair CLR 34.2 25.3 70% 30.09 0.0
01 23:35 Calm 10.00 Fair CLR 34.7 25.5 69% 30.09 0.0
01 23:15 Calm 10.00 Partly Cloudy SCT080 36.3 25.3 64% 30.09 0.0
01 22:55 Calm 10.00 Partly Cloudy SCT080 37.2 25 61% 30.09 0.0
01 22:35 Calm 10.00 Fair CLR 37.9 25 60% 30.09 0.0
01 22:15 Calm 10.00 Fair CLR 39.2 25.2 57% 30.09 0.0
01 21:55 Calm 10.00 Partly Cloudy SCT090 40.3 22.5 49% 30.09 0.0
01 21:35 Calm 10.00 Partly Cloudy SCT090 40.6 22.5 48% 30.09 0.0
01 21:15 Calm 10.00 Mostly Cloudy BKN080 41.4 21.9 46% 30.08 0.0
01 20:55 Calm 10.00 Mostly Cloudy BKN080 42.6 22.8 45% 30.08 0.0
01 20:35 Calm 10.00 Mostly Cloudy BKN080 44.6 21.4 40% 30.07 0.0
01 20:15 NE 5 10.00 Overcast OVC080 45.3 21.6 39% 43 30.07 0.0
01 19:55 N 6 10.00 Mostly Cloudy BKN080 46.4 21.2 37% 44 30.06 0.0
01 19:35 N 7 10.00 Partly Cloudy SCT080 46.4 21.9 38% 43 30.06 0.0
01 19:15 N 9 10.00 Mostly Cloudy BKN080 47.1 21.7 37% 43 30.05 0.0
01 18:55 NE 8 10.00 Mostly Cloudy BKN080 48.6 22.3 52 47.7 36% 45 30.05 0.0
01 18:35 N 8 10.00 Mostly Cloudy BKN080 47.7 21.2 35% 44 30.05 0.0
01 18:15 N 9 10.00 Mostly Cloudy BKN080 48.2 21.4 35% 45 30.04 0.0
01 17:55 N 9 10.00 Mostly Cloudy BKN080 49.1 21 33% 46 30.04 0.0
01 17:35 N 9 10.00 Mostly Cloudy BKN080 49.1 21 33% 46 30.04 0.0
01 17:15 N 9 10.00 Overcast BKN070 OVC080 49.6 21.2 33% 46 30.04 0.0
01 16:55 NW 7 10.00 Overcast OVC070 50 20.5 31% 48 30.03 0.0
01 16:35 N 9 10.00 Overcast OVC080 50.9 21.7 32% 30.04 0.0
01 16:15 NE 5 10.00 Overcast OVC070 49.1 20.7 33% 48 30.03 0.0
01 15:55 N 7 10.00 Overcast OVC070 50 21.9 33% 48 30.03 0.0
01 15:35 N 9 10.00 Mostly Cloudy SCT065 BKN080 48.9 20.8 33% 45 30.04 0.0
01 15:15 N 5 G 18 10.00 Mostly Cloudy SCT065 BKN075 49.5 22.1 34% 48 30.04 0.0
01 14:55 N 8 10.00 Mostly Cloudy BKN065 BKN075 50.5 23.2 34% 30.04 0.0
01 14:35 NW 12 G 18 10.00 Overcast BKN065 OVC075 51.1 22.8 33% 30.03 0.0
01 14:15 N 10 G 17 10.00 Overcast OVC075 50.4 21.4 32% 30.03 0.0
01 13:55 N 10 G 16 10.00 Overcast OVC070 52 22.8 32% 30.03 0.0
01 13:35 NW 9 G 18 10.00 Overcast OVC070 48.7 21.9 35% 45 30.03 0.0
01 13:15 N 14 G 18 10.00 Overcast OVC070 50 23.4 35% 45 30.03 0.0
01 12:55 N 12 G 20 10.00 Overcast BKN055 OVC070 47.5 22.8 49.1 33.4 38% 43 30.03 0.0
01 12:35 N 12 10.00 Overcast OVC050 47.7 24.6 41% 43 30.03 0.0
01 12:15 NW 9 10.00 Mostly Cloudy BKN050 47.5 24.3 40% 44 30.03 0.0
01 11:55 N 9 G 16 10.00 Overcast OVC050 47.7 25.2 41% 44 30.03 0.0
01 11:35 NW 5 10.00 Overcast OVC050 47.1 25 42% 46 30.04 0.0
01 11:15 NW 5 10.00 Overcast OVC050 47.7 25.9 43% 46 30.04 0.0
01 10:55 W 8 10.00 Overcast SCT055 OVC080 45.9 26.8 47% 42 30.04 0.0
01 10:35 NW 10 10.00 Overcast BKN050 OVC080 45.1 25.2 46% 40 30.04 0.0
01 10:15 NW 8 10.00 Overcast SCT034 BKN060 OVC080 46.4 28 49% 43 30.04 0.0
01 09:55 N 3 10.00 Overcast SCT032 OVC060 43 29.7 59% 30.04 0.0
01 09:35 Calm 10.00 Overcast OVC060 42.4 30 62% 30.04 0.0
01 09:15 Calm 10.00 Overcast BKN060 OVC075 42.1 30.9 65% 30.05 0.0
01 08:55 Calm 10.00 Overcast SCT048 SCT060 OVC075 40.6 31.3 69% 30.04 0.0
01 08:35 Calm 10.00 Overcast BKN060 OVC075 39.7 31.5 72% 30.04 0.0
01 08:15 W 3 10.00 Overcast OVC060 37.9 31.6 78% 30.05 0.0
01 07:55 W 3 10.00 Overcast BKN060 OVC080 36.5 30.7 80% 30.04 0.0
01 07:35 Calm 10.00 Overcast OVC080 35.6 30 80% 30.04 0.0
01 07:15 Calm 10.00 Overcast OVC080 34.7 29.3 81% 30.03 0.0
01 06:55 Calm 10.00 Overcast OVC080 33.4 28.8 40.3 32 83% 30.03 0.0
01 06:35 Calm 10.00 Overcast OVC070 32.9 28.4 84% 30.02 0.0
01 06:15 Calm 10.00 Overcast OVC070 32.5 27.5 82% 30.02 0.0
01 05:55 Calm 10.00 Overcast OVC070 32.2 27.5 83% 30.02 0.0
01 05:35 Calm 10.00 Mostly Cloudy SCT060 BKN070 32 27.5 83% 30.02 0.0
01 05:15 Calm 10.00 Partly Cloudy SCT060 SCT070 32 27.3 83% 30.02 0.0
01 04:55 W 3 10.00 Partly Cloudy SCT070 32.2 27 81% 30.02 0.0
01 04:35 Calm 10.00 Fair CLR 32.9 27.3 80% 30.02 0.0
01 04:15 Calm 10.00 Partly Cloudy SCT070 32 27.1 82% 30.02 0.0
01 03:55 Calm 10.00 Fair CLR 33.4 26.6 76% 30.01 0.0
01 03:30 Calm 10.00 Fair CLR 34.3 27.5 76% 30 0.0
01 03:15 Calm 10.00 Fair CLR 35.1 26.6 71% 30 0.0
01 02:55 Calm 10.00 Fair CLR 35.6 26.6 70% 29.99 0.0
01 02:35 Calm 10.00 Fair CLR 34.5 26.8 73% 30 0.0
01 02:15 Calm 10.00 Fair CLR 36.7 26.4 66% 30 0.0
01 01:55 Calm 10.00 Fair CLR 36.1 26.1 67% 30 0.0
Date Time (cdt) Wind (mph) Vis. (mi.) Weather Sky Cond. Air Dwpt Max. Min. Relative Humidity Wind Chill (°F) Heat Index (°F) altimeter (in) sea level (mb) 1 hr 3 hr 6 hr
6 hour
Temperature (ºF) Pressure Precipitation (in)